createdAt,value
2022-10-18T00:01:35.892Z,99678.09
2022-10-18T00:04:02.795Z,99679.19
2022-10-18T00:06:29.843Z,99673.81
2022-10-18T00:08:56.631Z,99689.75
2022-10-18T00:11:24.041Z,99684.59
2022-10-18T00:13:50.885Z,99689.19
2022-10-18T00:16:19.342Z,99684.88
2022-10-18T00:18:48.245Z,99686.03
2022-10-18T00:21:20.217Z,99688.56
2022-10-18T00:23:49.221Z,99689.41
2022-10-18T00:26:28.654Z,99692.19
2022-10-18T00:28:59.962Z,99687.81
2022-10-18T00:31:36.393Z,99685.47
2022-10-18T00:34:11.909Z,99678.47
2022-10-18T00:36:39.530Z,99690.78
2022-10-18T00:39:08.771Z,99691.75
2022-10-18T00:41:38.103Z,99690.13
2022-10-18T00:44:27.654Z,99670.22
2022-10-18T00:47:05.092Z,99673.38
2022-10-18T00:49:36.297Z,99670.69
2022-10-18T00:52:13.406Z,99668.28
2022-10-18T00:54:44.444Z,99674.50
2022-10-18T00:57:13.605Z,99674.66
2022-10-18T00:59:42.754Z,99663.25
2022-10-18T01:02:10.954Z,99663.50
2022-10-18T01:04:37.981Z,99677.03
2022-10-18T01:07:26.224Z,99679.50
2022-10-18T01:10:03.136Z,99673.59
2022-10-18T01:12:40.348Z,99671.78
2022-10-18T01:15:40.088Z,99665.94
2022-10-18T01:18:29.628Z,99658.75
2022-10-18T01:21:29.949Z,99654.47
2022-10-18T01:24:08.991Z,99652.84
2022-10-18T01:27:00.009Z,99657.25
2022-10-18T01:29:33.394Z,99660.09
2022-10-18T01:32:10.673Z,99664.81
2022-10-18T01:34:43.609Z,99655.47
2022-10-18T01:37:16.615Z,99660.28
2022-10-18T01:39:50.876Z,99651.78
2022-10-18T01:42:20.764Z,99652.56
2022-10-18T01:44:52.004Z,99647.19
2022-10-18T01:47:20.451Z,99646.16
2022-10-18T01:49:47.455Z,99642.63
2022-10-18T01:52:16.450Z,99642.84
2022-10-18T01:54:50.877Z,99634.28
2022-10-18T01:57:36.604Z,99640.13
2022-10-18T02:00:38.037Z,99647.47
2022-10-18T02:03:16.638Z,99648.16
2022-10-18T02:06:19.779Z,99636.78
2022-10-18T02:09:11.110Z,99637.59
2022-10-18T02:11:42.154Z,99630.38
2022-10-18T02:14:15.299Z,99633.28
2022-10-18T02:16:48.360Z,99647.59
2022-10-18T02:19:43.368Z,99649.97
2022-10-18T02:22:12.891Z,99656.97
2022-10-18T02:24:48.327Z,99643.69
2022-10-18T02:27:15.989Z,99647.31
2022-10-18T02:29:44.633Z,99648.41
2022-10-18T02:32:19.609Z,99648.41
2022-10-18T02:35:02.141Z,99648.34
2022-10-18T02:37:35.475Z,99652.78
2022-10-18T02:40:05.776Z,99644.06
2022-10-18T02:42:40.209Z,99645.88
2022-10-18T02:45:07.498Z,99641.41
2022-10-18T02:47:34.704Z,99646.00
2022-10-18T02:50:01.553Z,99642.94
2022-10-18T02:52:28.522Z,99642.34
2022-10-18T02:54:55.347Z,99644.25
2022-10-18T02:57:22.336Z,99639.88
2022-10-18T02:59:49.181Z,99640.66
2022-10-18T03:02:16.373Z,99655.25
2022-10-18T03:04:43.388Z,99649.78
2022-10-18T03:07:10.347Z,99656.88
2022-10-18T03:09:37.124Z,99663.09
2022-10-18T03:12:04.357Z,99658.72
2022-10-18T03:14:31.249Z,99658.81
2022-10-18T03:16:58.316Z,99661.75
2022-10-18T03:19:25.163Z,99662.66
2022-10-18T03:21:52.226Z,99665.13
2022-10-18T03:24:18.997Z,99653.50
2022-10-18T03:26:46.241Z,99656.16
2022-10-18T03:29:13.195Z,99663.22
2022-10-18T03:31:40.236Z,99655.13
2022-10-18T03:34:07.015Z,99663.09
2022-10-18T03:36:34.472Z,99665.06
2022-10-18T03:39:01.310Z,99659.84
2022-10-18T03:41:28.814Z,99666.94
2022-10-18T03:43:55.634Z,99655.53
2022-10-18T03:46:22.733Z,99658.97
2022-10-18T03:48:49.611Z,99659.22
2022-10-18T03:51:16.680Z,99655.09
2022-10-18T03:53:43.638Z,99655.16
2022-10-18T03:56:10.679Z,99655.16
2022-10-18T03:58:37.630Z,99654.31
2022-10-18T04:01:04.867Z,99659.66
2022-10-18T04:03:31.725Z,99658.78
2022-10-18T04:06:00.742Z,99655.09
2022-10-18T04:08:27.645Z,99652.34
2022-10-18T04:10:54.783Z,99653.38
2022-10-18T04:13:21.637Z,99643.09
2022-10-18T04:15:48.633Z,99637.00
2022-10-18T04:18:15.484Z,99644.50
2022-10-18T04:20:42.430Z,99642.59
2022-10-18T04:23:09.953Z,99639.06
2022-10-18T04:25:36.941Z,99641.97
2022-10-18T04:28:04.742Z,99635.63
2022-10-18T04:30:31.775Z,99635.63
2022-10-18T04:32:58.625Z,99632.03
2022-10-18T04:35:26.135Z,99625.03
2022-10-18T04:37:52.926Z,99633.16
2022-10-18T04:40:20.432Z,99643.09
2022-10-18T04:42:47.665Z,99631.94
2022-10-18T04:45:14.793Z,99624.16
2022-10-18T04:47:42.020Z,99634.09
2022-10-18T04:50:09.604Z,99624.53
2022-10-18T04:52:36.476Z,99635.03
2022-10-18T04:55:03.832Z,99633.16
2022-10-18T04:57:30.872Z,99638.09
2022-10-18T04:59:58.225Z,99637.91
2022-10-18T05:02:25.003Z,99630.00
2022-10-18T05:04:52.411Z,99633.63
2022-10-18T05:07:19.240Z,99640.19
2022-10-18T05:09:46.335Z,99632.38
2022-10-18T05:12:13.198Z,99635.03
2022-10-18T05:14:40.192Z,99639.38
2022-10-18T05:17:07.038Z,99635.88
2022-10-18T05:19:34.405Z,99634.13
2022-10-18T05:22:01.463Z,99636.78
2022-10-18T05:24:28.614Z,99638.53
2022-10-18T05:26:55.478Z,99643.03
2022-10-18T05:29:22.907Z,99647.56
2022-10-18T05:31:50.445Z,99657.31
2022-10-18T05:34:18.783Z,99646.59
2022-10-18T05:36:45.701Z,99658.16
2022-10-18T05:39:13.067Z,99659.91
2022-10-18T05:41:39.904Z,99661.69
2022-10-18T05:44:07.372Z,99660.91
2022-10-18T05:46:34.417Z,99657.44
2022-10-18T05:49:01.648Z,99653.25
2022-10-18T05:51:28.591Z,99655.84
2022-10-18T05:53:55.943Z,99663.72
2022-10-18T05:56:22.780Z,99660.22
2022-10-18T05:58:53.121Z,99662.88
2022-10-18T06:01:21.183Z,99660.34
2022-10-18T06:03:48.423Z,99662.03
2022-10-18T06:06:15.874Z,99667.16
2022-10-18T06:08:44.246Z,99668.72
2022-10-18T06:11:18.638Z,99662.44
2022-10-18T06:13:49.668Z,99666.81
2022-10-18T06:16:21.110Z,99669.47
2022-10-18T06:18:54.771Z,99668.25
2022-10-18T06:21:24.070Z,99662.00
2022-10-18T06:23:53.161Z,99671.69
2022-10-18T06:26:20.908Z,99666.22
2022-10-18T06:28:48.032Z,99670.69
2022-10-18T06:31:16.040Z,99667.91
2022-10-18T06:33:43.583Z,99666.16
2022-10-18T06:36:18.260Z,99667.88
2022-10-18T06:38:45.529Z,99667.19
2022-10-18T06:41:12.472Z,99665.53
2022-10-18T06:43:39.699Z,99665.31
2022-10-18T06:46:08.534Z,99672.03
2022-10-18T06:48:36.998Z,99667.75
2022-10-18T06:51:06.918Z,99670.28
2022-10-18T06:53:43.855Z,99665.78
2022-10-18T06:56:20.581Z,99663.13
2022-10-18T06:58:47.784Z,99664.19
2022-10-18T07:01:17.942Z,99661.38
2022-10-18T07:03:48.275Z,99662.00
2022-10-18T07:06:18.971Z,99665.47
2022-10-18T07:08:49.211Z,99663.13
2022-10-18T07:11:20.358Z,99657.81
2022-10-18T07:13:47.777Z,99663.19
2022-10-18T07:16:18.613Z,99663.97
2022-10-18T07:18:50.207Z,99660.22
2022-10-18T07:21:21.542Z,99661.69
2022-10-18T07:23:49.656Z,99663.09
2022-10-18T07:26:29.082Z,99663.94
2022-10-18T07:29:00.568Z,99657.91
2022-10-18T07:31:29.254Z,99657.97
2022-10-18T07:33:57.044Z,99652.88
2022-10-18T07:36:24.677Z,99661.63
2022-10-18T07:38:53.184Z,99660.56
2022-10-18T07:41:22.064Z,99660.38
2022-10-18T07:43:52.540Z,99660.50
2022-10-18T07:46:22.237Z,99663.50
2022-10-18T07:48:50.182Z,99665.00
2022-10-18T07:51:19.282Z,99660.56
2022-10-18T07:53:46.876Z,99658.47
2022-10-18T07:56:18.167Z,99652.13
2022-10-18T07:58:51.241Z,99653.63
2022-10-18T08:01:19.988Z,99648.75
2022-10-18T08:03:47.231Z,99630.97
2022-10-18T08:06:18.046Z,99639.53
2022-10-18T08:08:46.132Z,99629.63
2022-10-18T08:11:16.570Z,99624.25
2022-10-18T08:13:44.063Z,99626.19
2022-10-18T08:16:15.421Z,99623.25
2022-10-18T08:18:42.737Z,99621.25
2022-10-18T08:21:13.027Z,99629.16
2022-10-18T08:23:40.934Z,99643.38
2022-10-18T08:26:15.903Z,99646.94
2022-10-18T08:28:53.557Z,99641.63
2022-10-18T08:31:21.177Z,99636.47
2022-10-18T08:33:48.713Z,99643.13
2022-10-18T08:36:17.358Z,99639.41
2022-10-18T08:38:44.656Z,99630.44
2022-10-18T08:41:37.472Z,99631.44
2022-10-18T08:44:26.423Z,99631.97
2022-10-18T08:47:00.512Z,99629.38
2022-10-18T08:49:38.237Z,99632.03
2022-10-18T08:52:21.108Z,99640.00
2022-10-18T08:55:02.107Z,99640.66
2022-10-18T08:57:31.897Z,99631.03
2022-10-18T08:59:59.602Z,99633.09
2022-10-18T09:02:40.514Z,99616.59
2022-10-18T09:05:13.843Z,99620.78
2022-10-18T09:07:59.024Z,99623.38
2022-10-18T09:11:04.444Z,99625.97
2022-10-18T09:14:35.135Z,99624.09
2022-10-18T09:17:47.837Z,99626.69
2022-10-18T09:20:23.172Z,99629.63
2022-10-18T09:23:46.949Z,99620.41
2022-10-18T09:26:20.971Z,99617.09
2022-10-18T09:29:28.022Z,99618.22
2022-10-18T09:32:15.207Z,99614.03
2022-10-18T09:34:53.664Z,99610.06
2022-10-18T09:37:24.117Z,99612.41
2022-10-18T09:40:03.478Z,99609.50
2022-10-18T09:42:39.353Z,99604.66
2022-10-18T09:45:34.739Z,99608.03
2022-10-18T09:48:45.696Z,99610.31
2022-10-18T09:51:22.249Z,99600.31
2022-10-18T09:54:03.425Z,99595.69
2022-10-18T09:56:41.936Z,99590.22
2022-10-18T09:59:47.291Z,99582.94
2022-10-18T10:02:24.856Z,99580.34
2022-10-18T10:04:54.342Z,99579.38
2022-10-18T10:07:35.210Z,99570.72
2022-10-18T10:10:16.430Z,99571.41
2022-10-18T10:12:44.259Z,99576.34
2022-10-18T10:15:29.690Z,99563.88
2022-10-18T10:18:17.381Z,99556.44
2022-10-18T10:20:48.756Z,99550.03
2022-10-18T10:23:26.761Z,99547.81
2022-10-18T10:26:04.103Z,99561.31
2022-10-18T10:28:48.784Z,99565.75
2022-10-18T10:31:25.041Z,99548.06
2022-10-18T10:34:14.000Z,99554.00
2022-10-18T10:36:54.299Z,99558.06
2022-10-18T10:39:24.593Z,99553.19
2022-10-18T10:41:58.726Z,99559.28
2022-10-18T10:44:32.899Z,99557.41
2022-10-18T10:47:00.226Z,99556.41
2022-10-18T10:49:46.478Z,99550.03
2022-10-18T10:52:28.574Z,99557.84
2022-10-18T10:55:06.232Z,99551.25
2022-10-18T10:57:38.711Z,99557.09
2022-10-18T11:00:06.510Z,99549.66
2022-10-18T11:02:36.394Z,99552.09
2022-10-18T11:05:23.611Z,99552.78
2022-10-18T11:07:56.714Z,99542.56
2022-10-18T11:10:31.155Z,99531.56
2022-10-18T11:13:35.826Z,99523.19
2022-10-18T11:16:33.976Z,99526.47
2022-10-18T11:19:12.531Z,99529.81
2022-10-18T11:21:41.945Z,99533.00
2022-10-18T11:24:16.637Z,99532.75
2022-10-18T11:27:28.504Z,99521.91
2022-10-18T11:30:35.946Z,99520.69
2022-10-18T11:34:07.745Z,99514.25
2022-10-18T11:37:30.097Z,99499.59
2022-10-18T11:40:14.535Z,99496.38
2022-10-18T11:43:07.174Z,99490.59
2022-10-18T11:46:02.548Z,99496.41
2022-10-18T11:49:16.286Z,99483.53
2022-10-18T11:52:07.999Z,99481.34
2022-10-18T11:55:30.311Z,99476.66
2022-10-18T11:58:16.971Z,99475.69
2022-10-18T12:01:22.329Z,99472.75
2022-10-18T12:04:03.542Z,99478.28
2022-10-18T12:06:37.605Z,99461.50
2022-10-18T12:09:37.991Z,99451.66
2022-10-18T12:12:45.980Z,99453.78
2022-10-18T12:15:21.029Z,99441.97
2022-10-18T12:17:55.091Z,99431.13
2022-10-18T12:20:37.919Z,99435.22
2022-10-18T12:23:14.392Z,99419.69
2022-10-18T12:25:51.299Z,99417.56
2022-10-18T12:28:55.631Z,99405.75
2022-10-18T12:31:50.870Z,99410.63
2022-10-18T12:34:30.793Z,99397.53
2022-10-18T12:37:40.298Z,99393.41
2022-10-18T12:40:46.127Z,99394.53
2022-10-18T12:43:22.792Z,99395.94
2022-10-18T12:45:57.278Z,99386.88
2022-10-18T12:48:45.722Z,99384.88
2022-10-18T12:51:21.983Z,99381.91
2022-10-18T12:54:12.319Z,99369.84
2022-10-18T12:56:42.658Z,99374.94
2022-10-18T12:59:15.627Z,99371.28
2022-10-18T13:01:51.779Z,99368.63
2022-10-18T13:04:45.544Z,99374.50
2022-10-18T13:07:30.864Z,99379.66
2022-10-18T13:10:10.008Z,99376.69
2022-10-18T13:12:36.784Z,99388.66
2022-10-18T13:15:49.199Z,99391.25
2022-10-18T13:18:55.311Z,99398.31
2022-10-18T13:21:57.413Z,99401.75
2022-10-18T13:24:42.431Z,99394.47
2022-10-18T13:27:42.673Z,99388.38
2022-10-18T13:30:32.132Z,99387.19
2022-10-18T13:33:31.453Z,99395.00
2022-10-18T13:35:58.340Z,99394.72
2022-10-18T13:38:39.376Z,99381.25
2022-10-18T13:41:10.345Z,99394.31
2022-10-18T13:43:52.976Z,99390.56
2022-10-18T13:46:20.830Z,99397.41
2022-10-18T13:48:52.638Z,99394.53
2022-10-18T13:51:44.680Z,99398.91
2022-10-18T13:54:43.263Z,99401.59
2022-10-18T13:57:59.474Z,99403.53
2022-10-18T14:01:03.072Z,99411.66
2022-10-18T14:03:55.847Z,99417.50
2022-10-18T14:06:28.250Z,99431.19
2022-10-18T14:09:43.591Z,99434.00
2022-10-18T14:12:28.918Z,99444.09
2022-10-18T14:15:21.223Z,99437.47
2022-10-18T14:17:53.381Z,99439.66
2022-10-18T14:21:01.245Z,99448.44
2022-10-18T14:23:44.511Z,99443.97
2022-10-18T14:26:20.874Z,99455.41
2022-10-18T14:29:17.869Z,99452.00
2022-10-18T14:31:54.373Z,99472.34
2022-10-18T14:34:22.252Z,99488.53
2022-10-18T14:36:50.417Z,99496.44
2022-10-18T14:39:28.176Z,99485.44
2022-10-18T14:41:58.452Z,99486.63
2022-10-18T14:44:31.853Z,99476.16
2022-10-18T14:47:16.278Z,99453.13
2022-10-18T14:49:47.202Z,99441.53
2022-10-18T14:52:26.172Z,99457.59
2022-10-18T14:54:58.943Z,99468.47
2022-10-18T14:57:33.326Z,99479.47
2022-10-18T15:00:08.457Z,99500.47
2022-10-18T15:02:38.597Z,99506.19
2022-10-18T15:05:25.210Z,99498.88
2022-10-18T15:07:54.177Z,99494.66
2022-10-18T15:10:35.608Z,99488.88
2022-10-18T15:13:09.823Z,99489.19
2022-10-18T15:15:38.706Z,99499.91
2022-10-18T15:18:07.065Z,99491.16
2022-10-18T15:20:42.606Z,99498.28
2022-10-18T15:23:25.385Z,99488.56
2022-10-18T15:26:05.764Z,99489.44
2022-10-18T15:28:40.000Z,99484.91
2022-10-18T15:31:29.915Z,99477.78
2022-10-18T15:34:20.166Z,99474.41
2022-10-18T15:36:51.424Z,99472.69
2022-10-18T15:39:19.991Z,99467.22
2022-10-18T15:41:52.544Z,99476.31
2022-10-18T15:44:28.551Z,99465.81
2022-10-18T15:47:21.548Z,99477.31
2022-10-18T15:49:58.436Z,99470.38
2022-10-18T15:52:37.809Z,99465.81
2022-10-18T15:55:30.547Z,99470.28
2022-10-18T15:58:21.927Z,99477.59
2022-10-18T16:00:50.788Z,99484.50
2022-10-18T16:03:22.107Z,99484.44
2022-10-18T16:05:49.170Z,99479.88
2022-10-18T16:08:23.495Z,99481.63
2022-10-18T16:10:51.800Z,99486.94
2022-10-18T16:13:19.321Z,99479.88
2022-10-18T16:15:47.004Z,99474.41
2022-10-18T16:18:18.785Z,99478.88
2022-10-18T16:20:47.965Z,99490.28
2022-10-18T16:23:26.480Z,99501.78
2022-10-18T16:25:54.057Z,99501.63
2022-10-18T16:28:25.356Z,99510.53
2022-10-18T16:31:04.031Z,99501.63
2022-10-18T16:33:32.307Z,99508.84
2022-10-18T16:35:59.825Z,99514.25
2022-10-18T16:38:35.154Z,99522.22
2022-10-18T16:41:05.630Z,99528.38
2022-10-18T16:43:34.745Z,99545.31
2022-10-18T16:46:02.855Z,99547.97
2022-10-18T16:48:30.662Z,99551.53
2022-10-18T16:50:58.485Z,99560.38
2022-10-18T16:53:30.171Z,99560.44
2022-10-18T16:56:01.547Z,99557.78
2022-10-18T16:58:31.447Z,99568.59
2022-10-18T17:01:01.016Z,99567.78
2022-10-18T17:03:30.119Z,99572.25
2022-10-18T17:05:56.987Z,99583.88
2022-10-18T17:08:27.836Z,99584.97
2022-10-18T17:10:59.162Z,99590.28
2022-10-18T17:13:27.352Z,99586.84
2022-10-18T17:15:54.797Z,99599.38
2022-10-18T17:18:28.098Z,99596.72
2022-10-18T17:20:55.230Z,99602.09
2022-10-18T17:23:22.480Z,99601.22
2022-10-18T17:26:04.776Z,99604.03
2022-10-18T17:28:34.425Z,99611.00
2022-10-18T17:31:01.506Z,99611.84
2022-10-18T17:33:28.564Z,99613.66
2022-10-18T17:35:55.372Z,99611.91
2022-10-18T17:38:22.501Z,99617.34
2022-10-18T17:40:49.480Z,99614.69
2022-10-18T17:43:16.655Z,99625.53
2022-10-18T17:45:55.635Z,99621.84
2022-10-18T17:48:24.611Z,99624.56
2022-10-18T17:50:51.650Z,99623.72
2022-10-18T17:53:22.906Z,99627.22
2022-10-18T17:55:49.944Z,99625.53
2022-10-18T17:58:17.165Z,99621.13
2022-10-18T18:00:44.070Z,99621.22
2022-10-18T18:03:11.344Z,99625.66
2022-10-18T18:05:38.293Z,99629.19
2022-10-18T18:08:05.445Z,99632.88
2022-10-18T18:10:34.296Z,99624.97
2022-10-18T18:13:02.377Z,99626.66
2022-10-18T18:15:29.351Z,99624.97
2022-10-18T18:17:57.887Z,99623.09
2022-10-18T18:20:26.303Z,99626.66
2022-10-18T18:22:53.503Z,99628.41
2022-10-18T18:25:20.655Z,99623.88
2022-10-18T18:27:47.641Z,99630.00
2022-10-18T18:30:18.007Z,99632.66
2022-10-18T18:32:45.182Z,99629.13
2022-10-18T18:35:12.105Z,99626.38
2022-10-18T18:37:39.174Z,99613.88
2022-10-18T18:40:07.178Z,99614.75
2022-10-18T18:42:34.808Z,99619.91
2022-10-18T18:45:01.802Z,99620.63
2022-10-18T18:47:28.909Z,99620.56
2022-10-18T18:49:55.780Z,99620.47
2022-10-18T18:52:22.905Z,99616.72
2022-10-18T18:54:49.775Z,99622.91
2022-10-18T18:57:17.408Z,99616.72
2022-10-18T18:59:44.176Z,99619.47
2022-10-18T19:02:11.311Z,99618.63
2022-10-18T19:04:39.311Z,99623.84
2022-10-18T19:07:06.339Z,99621.97
2022-10-18T19:09:33.315Z,99616.72
2022-10-18T19:12:00.321Z,99620.16
2022-10-18T19:14:28.994Z,99619.31
2022-10-18T19:16:59.126Z,99625.50
2022-10-18T19:19:29.191Z,99619.31
2022-10-18T19:22:00.280Z,99621.03
2022-10-18T19:24:32.600Z,99635.28
2022-10-18T19:27:06.076Z,99633.34
2022-10-18T19:29:37.221Z,99630.78
2022-10-18T19:32:08.666Z,99636.88
2022-10-18T19:34:36.172Z,99632.56
2022-10-18T19:37:03.874Z,99636.19
2022-10-18T19:39:35.230Z,99629.06
2022-10-18T19:42:18.658Z,99626.41
2022-10-18T19:44:49.912Z,99631.72
2022-10-18T19:47:23.844Z,99633.53
2022-10-18T19:49:54.233Z,99642.47
2022-10-18T19:52:23.630Z,99638.16
2022-10-18T19:54:56.072Z,99648.00
2022-10-18T19:57:26.342Z,99643.75
2022-10-18T19:59:55.121Z,99656.25
2022-10-18T20:02:24.118Z,99659.88
2022-10-18T20:04:50.936Z,99666.25
2022-10-18T20:07:17.957Z,99669.94
2022-10-18T20:09:44.792Z,99679.81
2022-10-18T20:12:11.823Z,99679.81
2022-10-18T20:14:38.625Z,99669.31
2022-10-18T20:17:06.306Z,99674.63
2022-10-18T20:19:33.620Z,99677.28
2022-10-18T20:22:00.825Z,99674.63
2022-10-18T20:24:27.692Z,99673.88
2022-10-18T20:26:54.911Z,99680.91
2022-10-18T20:29:25.094Z,99683.59
2022-10-18T20:31:55.544Z,99684.50
2022-10-18T20:34:25.872Z,99683.72
2022-10-18T20:36:56.207Z,99680.28
2022-10-18T20:39:23.378Z,99677.69
2022-10-18T20:41:50.837Z,99684.88
2022-10-18T20:44:19.815Z,99674.31
2022-10-18T20:46:47.330Z,99677.91
2022-10-18T20:49:16.832Z,99677.03
2022-10-18T20:51:44.327Z,99668.34
2022-10-18T20:54:13.943Z,99670.28
2022-10-18T20:56:41.248Z,99680.84
2022-10-18T20:59:10.165Z,99673.81
2022-10-18T21:01:39.660Z,99671.16
2022-10-18T21:04:11.738Z,99672.09
2022-10-18T21:06:43.547Z,99670.50
2022-10-18T21:09:18.147Z,99672.38
2022-10-18T21:11:51.437Z,99666.22
2022-10-18T21:14:21.587Z,99668.75
2022-10-18T21:16:51.701Z,99661.81
2022-10-18T21:19:26.017Z,99662.03
2022-10-18T21:21:57.269Z,99655.84
2022-10-18T21:24:25.955Z,99664.69
2022-10-18T21:26:53.337Z,99665.63
2022-10-18T21:29:22.462Z,99664.75
2022-10-18T21:31:53.871Z,99662.16
2022-10-18T21:34:21.448Z,99661.38
2022-10-18T21:36:49.160Z,99656.13
2022-10-18T21:39:20.730Z,99651.97
2022-10-18T21:41:48.512Z,99650.22
2022-10-18T21:44:16.890Z,99653.03
2022-10-18T21:46:45.087Z,99658.44
2022-10-18T21:49:13.701Z,99655.84
2022-10-18T21:51:41.654Z,99662.06
2022-10-18T21:54:14.049Z,99665.56
2022-10-18T21:56:41.570Z,99667.38
2022-10-18T21:59:10.866Z,99661.22
2022-10-18T22:01:39.177Z,99663.94
2022-10-18T22:04:18.318Z,99663.09
2022-10-18T22:06:45.350Z,99662.19
2022-10-18T22:09:12.322Z,99659.53
2022-10-18T22:11:45.586Z,99647.94
2022-10-18T22:14:12.645Z,99644.25
2022-10-18T22:16:39.649Z,99645.88
2022-10-18T22:19:07.561Z,99642.19
2022-10-18T22:21:35.612Z,99643.84
2022-10-18T22:24:07.415Z,99641.06
2022-10-18T22:26:39.811Z,99638.19
2022-10-18T22:29:19.660Z,99624.88
2022-10-18T22:31:53.548Z,99627.47
2022-10-18T22:34:26.254Z,99640.63
2022-10-18T22:36:53.810Z,99633.56
2022-10-18T22:39:20.830Z,99632.66
2022-10-18T22:41:49.496Z,99625.53
2022-10-18T22:44:16.384Z,99620.28
2022-10-18T22:46:43.469Z,99616.91
2022-10-18T22:49:11.885Z,99626.56
2022-10-18T22:51:39.736Z,99633.50
2022-10-18T22:54:06.809Z,99626.56
2022-10-18T22:56:33.835Z,99621.31
2022-10-18T22:59:00.684Z,99610.91
2022-10-18T23:01:27.824Z,99606.88
2022-10-18T23:03:57.512Z,99612.47
2022-10-18T23:06:34.643Z,99604.72
2022-10-18T23:09:07.094Z,99608.31
2022-10-18T23:11:36.203Z,99619.84
2022-10-18T23:14:05.918Z,99610.16
2022-10-18T23:16:33.361Z,99612.03
2022-10-18T23:19:00.666Z,99619.00
2022-10-18T23:21:29.149Z,99620.72
2022-10-18T23:23:57.487Z,99623.38
2022-10-18T23:26:27.480Z,99632.19
2022-10-18T23:28:55.264Z,99640.22
2022-10-18T23:31:29.355Z,99637.66
2022-10-18T23:34:00.405Z,99642.22
2022-10-18T23:36:27.901Z,99639.44
2022-10-18T23:38:56.070Z,99636.84
2022-10-18T23:41:23.666Z,99642.38
2022-10-18T23:43:50.654Z,99649.34
2022-10-18T23:46:18.566Z,99635.13
2022-10-18T23:48:46.932Z,99630.69
2022-10-18T23:51:15.399Z,99630.75
2022-10-18T23:53:42.632Z,99629.88
2022-10-18T23:56:16.042Z,99638.94
2022-10-18T23:58:44.606Z,99623.00
